sensor_id;sensor_type;location;lat;lon;timestamp;P1;durP1;ratioP1;P2;durP2;ratioP2
28627;SDS011;15815;46.760;19.604;2023-04-15T00:01:25;15.60;;;9.25;;
28627;SDS011;15815;46.760;19.604;2023-04-15T00:03:51;12.38;;;7.78;;
28627;SDS011;15815;46.760;19.604;2023-04-15T00:06:17;20.90;;;10.85;;
28627;SDS011;15815;46.760;19.604;2023-04-15T00:08:43;25.15;;;10.82;;
28627;SDS011;15815;46.760;19.604;2023-04-15T00:11:09;21.80;;;9.48;;
28627;SDS011;15815;46.760;19.604;2023-04-15T00:13:35;29.98;;;12.57;;
28627;SDS011;15815;46.760;19.604;2023-04-15T00:16:00;33.75;;;13.93;;
28627;SDS011;15815;46.760;19.604;2023-04-15T00:18:26;28.35;;;13.93;;
28627;SDS011;15815;46.760;19.604;2023-04-15T00:20:52;17.85;;;11.68;;
28627;SDS011;15815;46.760;19.604;2023-04-15T00:23:18;18.48;;;10.82;;
28627;SDS011;15815;46.760;19.604;2023-04-15T00:25:43;14.43;;;10.02;;
28627;SDS011;15815;46.760;19.604;2023-04-15T00:28:09;14.43;;;10.55;;
28627;SDS011;15815;46.760;19.604;2023-04-15T00:30:35;23.25;;;13.93;;
28627;SDS011;15815;46.760;19.604;2023-04-15T00:33:00;18.10;;;11.57;;
28627;SDS011;15815;46.760;19.604;2023-04-15T00:35:26;18.92;;;12.23;;
28627;SDS011;15815;46.760;19.604;2023-04-15T00:37:51;15.52;;;10.15;;
28627;SDS011;15815;46.760;19.604;2023-04-15T00:40:17;12.30;;;9.50;;
28627;SDS011;15815;46.760;19.604;2023-04-15T00:42:46;13.18;;;10.15;;
28627;SDS011;15815;46.760;19.604;2023-04-15T00:45:11;10.65;;;9.25;;
28627;SDS011;15815;46.760;19.604;2023-04-15T00:47:38;14.63;;;9.52;;
28627;SDS011;15815;46.760;19.604;2023-04-15T00:50:05;17.95;;;9.98;;
28627;SDS011;15815;46.760;19.604;2023-04-15T00:52:32;11.57;;;9.48;;
28627;SDS011;15815;46.760;19.604;2023-04-15T00:54:57;12.23;;;10.73;;
28627;SDS011;15815;46.760;19.604;2023-04-15T00:57:23;15.93;;;10.63;;
28627;SDS011;15815;46.760;19.604;2023-04-15T00:59:50;11.73;;;10.50;;
28627;SDS011;15815;46.760;19.604;2023-04-15T01:02:19;18.35;;;13.23;;
28627;SDS011;15815;46.760;19.604;2023-04-15T01:04:46;14.13;;;10.38;;
28627;SDS011;15815;46.760;19.604;2023-04-15T01:07:11;13.75;;;10.63;;
28627;SDS011;15815;46.760;19.604;2023-04-15T01:09:40;16.92;;;13.45;;
28627;SDS011;15815;46.760;19.604;2023-04-15T01:12:06;15.77;;;13.65;;
28627;SDS011;15815;46.760;19.604;2023-04-15T01:14:35;15.85;;;12.80;;
28627;SDS011;15815;46.760;19.604;2023-04-15T01:17:00;16.20;;;13.02;;
28627;SDS011;15815;46.760;19.604;2023-04-15T01:19:27;16.98;;;13.30;;
28627;SDS011;15815;46.760;19.604;2023-04-15T01:21:53;33.08;;;18.75;;
28627;SDS011;15815;46.760;19.604;2023-04-15T01:24:18;39.83;;;25.23;;
28627;SDS011;15815;46.760;19.604;2023-04-15T01:26:44;36.63;;;21.60;;
28627;SDS011;15815;46.760;19.604;2023-04-15T01:29:10;34.53;;;23.00;;
28627;SDS011;15815;46.760;19.604;2023-04-15T01:31:36;30.67;;;20.60;;
28627;SDS011;15815;46.760;19.604;2023-04-15T01:34:01;27.17;;;18.80;;
28627;SDS011;15815;46.760;19.604;2023-04-15T01:36:27;23.77;;;17.08;;
28627;SDS011;15815;46.760;19.604;2023-04-15T01:38:55;19.80;;;13.43;;
28627;SDS011;15815;46.760;19.604;2023-04-15T01:41:24;20.88;;;12.65;;
28627;SDS011;15815;46.760;19.604;2023-04-15T01:43:50;17.90;;;12.85;;
28627;SDS011;15815;46.760;19.604;2023-04-15T01:46:16;17.77;;;13.73;;
28627;SDS011;15815;46.760;19.604;2023-04-15T01:48:41;25.10;;;17.58;;
28627;SDS011;15815;46.760;19.604;2023-04-15T01:51:07;22.77;;;17.35;;
28627;SDS011;15815;46.760;19.604;2023-04-15T01:53:32;19.15;;;12.85;;
28627;SDS011;15815;46.760;19.604;2023-04-15T01:55:58;17.20;;;12.35;;
28627;SDS011;15815;46.760;19.604;2023-04-15T01:58:24;15.05;;;10.63;;
28627;SDS011;15815;46.760;19.604;2023-04-15T02:00:49;17.73;;;11.07;;
28627;SDS011;15815;46.760;19.604;2023-04-15T02:03:15;13.95;;;11.00;;
28627;SDS011;15815;46.760;19.604;2023-04-15T02:05:41;15.70;;;11.25;;
28627;SDS011;15815;46.760;19.604;2023-04-15T02:08:06;17.95;;;11.80;;
28627;SDS011;15815;46.760;19.604;2023-04-15T02:10:32;13.30;;;10.55;;
28627;SDS011;15815;46.760;19.604;2023-04-15T02:12:57;19.92;;;12.63;;
28627;SDS011;15815;46.760;19.604;2023-04-15T02:15:23;18.17;;;11.65;;
28627;SDS011;15815;46.760;19.604;2023-04-15T02:17:48;12.65;;;10.40;;
28627;SDS011;15815;46.760;19.604;2023-04-15T02:20:14;16.67;;;10.68;;
28627;SDS011;15815;46.760;19.604;2023-04-15T02:22:39;14.90;;;10.88;;
28627;SDS011;15815;46.760;19.604;2023-04-15T02:25:05;15.80;;;10.93;;
28627;SDS011;15815;46.760;19.604;2023-04-15T02:27:34;14.65;;;9.93;;
28627;SDS011;15815;46.760;19.604;2023-04-15T02:30:00;15.10;;;10.00;;
28627;SDS011;15815;46.760;19.604;2023-04-15T02:32:26;15.70;;;9.70;;
28627;SDS011;15815;46.760;19.604;2023-04-15T02:34:52;14.23;;;10.18;;
28627;SDS011;15815;46.760;19.604;2023-04-15T02:37:17;16.48;;;10.45;;
28627;SDS011;15815;46.760;19.604;2023-04-15T02:39:43;16.33;;;10.85;;
28627;SDS011;15815;46.760;19.604;2023-04-15T02:42:08;15.65;;;10.57;;
28627;SDS011;15815;46.760;19.604;2023-04-15T02:44:34;14.40;;;9.70;;
28627;SDS011;15815;46.760;19.604;2023-04-15T02:46:59;16.52;;;10.48;;
28627;SDS011;15815;46.760;19.604;2023-04-15T02:49:25;15.15;;;10.63;;
28627;SDS011;15815;46.760;19.604;2023-04-15T02:51:53;12.80;;;9.55;;
28627;SDS011;15815;46.760;19.604;2023-04-15T02:54:19;15.43;;;11.13;;
28627;SDS011;15815;46.760;19.604;2023-04-15T02:56:45;18.58;;;13.13;;
28627;SDS011;15815;46.760;19.604;2023-04-15T02:59:11;15.93;;;13.02;;
28627;SDS011;15815;46.760;19.604;2023-04-15T03:01:37;13.95;;;11.07;;
28627;SDS011;15815;46.760;19.604;2023-04-15T03:04:05;16.27;;;9.68;;
28627;SDS011;15815;46.760;19.604;2023-04-15T03:06:31;11.77;;;9.18;;
28627;SDS011;15815;46.760;19.604;2023-04-15T03:08:56;9.85;;;8.40;;
28627;SDS011;15815;46.760;19.604;2023-04-15T03:11:22;11.82;;;8.88;;
28627;SDS011;15815;46.760;19.604;2023-04-15T03:13:47;15.20;;;9.23;;
28627;SDS011;15815;46.760;19.604;2023-04-15T03:16:13;12.15;;;8.65;;
28627;SDS011;15815;46.760;19.604;2023-04-15T03:18:38;14.00;;;9.98;;
28627;SDS011;15815;46.760;19.604;2023-04-15T03:21:04;14.45;;;9.40;;
28627;SDS011;15815;46.760;19.604;2023-04-15T03:23:30;13.15;;;9.40;;
28627;SDS011;15815;46.760;19.604;2023-04-15T03:25:56;12.10;;;8.55;;
28627;SDS011;15815;46.760;19.604;2023-04-15T03:28:21;11.43;;;8.98;;
28627;SDS011;15815;46.760;19.604;2023-04-15T03:30:48;14.25;;;8.15;;
28627;SDS011;15815;46.760;19.604;2023-04-15T03:33:13;10.82;;;8.57;;
28627;SDS011;15815;46.760;19.604;2023-04-15T03:35:39;13.27;;;8.32;;
28627;SDS011;15815;46.760;19.604;2023-04-15T03:38:05;11.85;;;8.60;;
28627;SDS011;15815;46.760;19.604;2023-04-15T03:40:31;9.23;;;7.88;;
28627;SDS011;15815;46.760;19.604;2023-04-15T03:42:57;13.18;;;9.68;;
28627;SDS011;15815;46.760;19.604;2023-04-15T03:45:22;13.63;;;9.75;;
28627;SDS011;15815;46.760;19.604;2023-04-15T03:47:48;17.73;;;9.50;;
28627;SDS011;15815;46.760;19.604;2023-04-15T03:50:13;15.18;;;8.75;;
28627;SDS011;15815;46.760;19.604;2023-04-15T03:52:39;15.30;;;9.63;;
28627;SDS011;15815;46.760;19.604;2023-04-15T03:55:05;14.32;;;10.27;;
28627;SDS011;15815;46.760;19.604;2023-04-15T03:57:30;14.95;;;10.68;;
28627;SDS011;15815;46.760;19.604;2023-04-15T03:59:56;12.48;;;9.52;;
28627;SDS011;15815;46.760;19.604;2023-04-15T04:02:21;15.88;;;10.63;;
28627;SDS011;15815;46.760;19.604;2023-04-15T04:04:47;19.73;;;14.45;;
28627;SDS011;15815;46.760;19.604;2023-04-15T04:07:17;68.90;;;39.17;;
28627;SDS011;15815;46.760;19.604;2023-04-15T04:09:42;61.72;;;33.05;;
28627;SDS011;15815;46.760;19.604;2023-04-15T04:12:08;19.65;;;11.25;;
28627;SDS011;15815;46.760;19.604;2023-04-15T04:14:34;9.90;;;7.78;;
28627;SDS011;15815;46.760;19.604;2023-04-15T04:16:59;12.88;;;8.50;;
28627;SDS011;15815;46.760;19.604;2023-04-15T04:19:25;16.73;;;13.73;;
28627;SDS011;15815;46.760;19.604;2023-04-15T04:21:50;17.65;;;12.85;;
28627;SDS011;15815;46.760;19.604;2023-04-15T04:24:16;12.93;;;9.60;;
28627;SDS011;15815;46.760;19.604;2023-04-15T04:26:42;12.18;;;9.32;;
28627;SDS011;15815;46.760;19.604;2023-04-15T04:29:07;10.90;;;7.75;;
28627;SDS011;15815;46.760;19.604;2023-04-15T04:31:33;11.60;;;9.02;;
28627;SDS011;15815;46.760;19.604;2023-04-15T04:33:58;18.33;;;10.32;;
28627;SDS011;15815;46.760;19.604;2023-04-15T04:36:24;14.32;;;10.25;;
28627;SDS011;15815;46.760;19.604;2023-04-15T04:38:50;16.50;;;10.18;;
28627;SDS011;15815;46.760;19.604;2023-04-15T04:41:15;15.55;;;10.52;;
28627;SDS011;15815;46.760;19.604;2023-04-15T04:43:42;17.00;;;10.32;;
28627;SDS011;15815;46.760;19.604;2023-04-15T04:46:07;21.73;;;12.70;;
28627;SDS011;15815;46.760;19.604;2023-04-15T04:48:33;23.17;;;13.60;;
28627;SDS011;15815;46.760;19.604;2023-04-15T04:50:58;17.05;;;10.48;;
28627;SDS011;15815;46.760;19.604;2023-04-15T04:53:24;15.35;;;10.32;;
28627;SDS011;15815;46.760;19.604;2023-04-15T04:55:50;14.35;;;9.23;;
28627;SDS011;15815;46.760;19.604;2023-04-15T04:58:15;17.55;;;10.73;;
28627;SDS011;15815;46.760;19.604;2023-04-15T05:00:41;21.83;;;11.68;;
28627;SDS011;15815;46.760;19.604;2023-04-15T05:03:06;17.73;;;10.38;;
28627;SDS011;15815;46.760;19.604;2023-04-15T05:05:32;18.15;;;10.90;;
28627;SDS011;15815;46.760;19.604;2023-04-15T05:07:58;15.07;;;9.02;;
28627;SDS011;15815;46.760;19.604;2023-04-15T05:10:24;18.55;;;8.98;;
28627;SDS011;15815;46.760;19.604;2023-04-15T05:12:49;14.23;;;9.82;;
28627;SDS011;15815;46.760;19.604;2023-04-15T05:15:15;17.10;;;9.05;;
28627;SDS011;15815;46.760;19.604;2023-04-15T05:17:41;13.77;;;8.73;;
28627;SDS011;15815;46.760;19.604;2023-04-15T05:20:06;17.73;;;9.32;;
28627;SDS011;15815;46.760;19.604;2023-04-15T05:22:35;13.10;;;10.73;;
28627;SDS011;15815;46.760;19.604;2023-04-15T05:25:01;13.05;;;8.75;;
28627;SDS011;15815;46.760;19.604;2023-04-15T05:27:26;11.90;;;8.98;;
28627;SDS011;15815;46.760;19.604;2023-04-15T05:29:52;18.23;;;13.93;;
28627;SDS011;15815;46.760;19.604;2023-04-15T05:32:17;15.20;;;10.43;;
28627;SDS011;15815;46.760;19.604;2023-04-15T05:34:43;12.65;;;8.80;;
28627;SDS011;15815;46.760;19.604;2023-04-15T05:37:09;10.18;;;8.27;;
28627;SDS011;15815;46.760;19.604;2023-04-15T05:39:34;12.23;;;8.93;;
28627;SDS011;15815;46.760;19.604;2023-04-15T05:42:00;20.80;;;10.00;;
28627;SDS011;15815;46.760;19.604;2023-04-15T05:44:25;14.82;;;10.07;;
28627;SDS011;15815;46.760;19.604;2023-04-15T05:46:51;14.05;;;9.32;;
28627;SDS011;15815;46.760;19.604;2023-04-15T05:49:16;14.10;;;8.65;;
28627;SDS011;15815;46.760;19.604;2023-04-15T05:51:43;12.45;;;8.57;;
28627;SDS011;15815;46.760;19.604;2023-04-15T05:54:08;8.20;;;7.22;;
28627;SDS011;15815;46.760;19.604;2023-04-15T05:56:34;9.57;;;7.30;;
28627;SDS011;15815;46.760;19.604;2023-04-15T05:59:00;8.82;;;6.43;;
28627;SDS011;15815;46.760;19.604;2023-04-15T06:01:25;15.65;;;8.32;;
28627;SDS011;15815;46.760;19.604;2023-04-15T06:03:51;14.23;;;8.95;;
28627;SDS011;15815;46.760;19.604;2023-04-15T06:06:17;15.05;;;9.45;;
28627;SDS011;15815;46.760;19.604;2023-04-15T06:08:42;12.45;;;6.70;;
28627;SDS011;15815;46.760;19.604;2023-04-15T06:11:08;11.05;;;6.75;;
28627;SDS011;15815;46.760;19.604;2023-04-15T06:13:33;8.07;;;5.80;;
28627;SDS011;15815;46.760;19.604;2023-04-15T06:15:59;8.20;;;5.28;;
28627;SDS011;15815;46.760;19.604;2023-04-15T06:18:24;10.60;;;5.18;;
28627;SDS011;15815;46.760;19.604;2023-04-15T06:20:50;7.75;;;5.00;;
28627;SDS011;15815;46.760;19.604;2023-04-15T06:23:16;10.52;;;4.15;;
28627;SDS011;15815;46.760;19.604;2023-04-15T06:25:42;8.60;;;5.13;;
28627;SDS011;15815;46.760;19.604;2023-04-15T06:28:09;8.27;;;3.70;;
28627;SDS011;15815;46.760;19.604;2023-04-15T06:30:34;4.30;;;3.25;;
28627;SDS011;15815;46.760;19.604;2023-04-15T06:33:01;3.92;;;2.85;;
28627;SDS011;15815;46.760;19.604;2023-04-15T06:35:27;4.90;;;3.22;;
28627;SDS011;15815;46.760;19.604;2023-04-15T06:37:56;4.47;;;3.72;;
28627;SDS011;15815;46.760;19.604;2023-04-15T06:40:21;4.55;;;3.60;;
28627;SDS011;15815;46.760;19.604;2023-04-15T06:42:47;7.30;;;2.92;;
28627;SDS011;15815;46.760;19.604;2023-04-15T06:45:12;3.67;;;2.90;;
28627;SDS011;15815;46.760;19.604;2023-04-15T06:47:38;3.88;;;2.53;;
28627;SDS011;15815;46.760;19.604;2023-04-15T06:50:03;3.55;;;2.15;;
28627;SDS011;15815;46.760;19.604;2023-04-15T06:52:30;5.05;;;2.47;;
28627;SDS011;15815;46.760;19.604;2023-04-15T06:55:01;5.78;;;2.50;;
28627;SDS011;15815;46.760;19.604;2023-04-15T06:57:26;3.53;;;3.00;;
28627;SDS011;15815;46.760;19.604;2023-04-15T06:59:52;7.10;;;3.22;;
28627;SDS011;15815;46.760;19.604;2023-04-15T07:02:17;3.63;;;2.53;;
28627;SDS011;15815;46.760;19.604;2023-04-15T07:04:43;9.90;;;4.88;;
28627;SDS011;15815;46.760;19.604;2023-04-15T07:07:08;7.43;;;3.63;;
28627;SDS011;15815;46.760;19.604;2023-04-15T07:09:34;3.20;;;2.63;;
28627;SDS011;15815;46.760;19.604;2023-04-15T07:11:59;4.75;;;2.83;;
28627;SDS011;15815;46.760;19.604;2023-04-15T07:14:25;5.28;;;3.67;;
28627;SDS011;15815;46.760;19.604;2023-04-15T07:16:54;4.40;;;3.05;;
28627;SDS011;15815;46.760;19.604;2023-04-15T07:19:19;7.70;;;2.67;;
28627;SDS011;15815;46.760;19.604;2023-04-15T07:21:45;4.38;;;3.40;;
28627;SDS011;15815;46.760;19.604;2023-04-15T07:24:11;11.73;;;3.20;;
28627;SDS011;15815;46.760;19.604;2023-04-15T07:26:37;5.43;;;2.80;;
28627;SDS011;15815;46.760;19.604;2023-04-15T07:29:02;3.70;;;2.25;;
28627;SDS011;15815;46.760;19.604;2023-04-15T07:31:29;6.15;;;2.53;;
28627;SDS011;15815;46.760;19.604;2023-04-15T07:33:54;3.70;;;2.40;;
28627;SDS011;15815;46.760;19.604;2023-04-15T07:36:20;5.13;;;2.13;;
28627;SDS011;15815;46.760;19.604;2023-04-15T07:38:45;3.22;;;2.13;;
28627;SDS011;15815;46.760;19.604;2023-04-15T07:41:11;8.90;;;3.35;;
28627;SDS011;15815;46.760;19.604;2023-04-15T07:43:36;5.32;;;2.90;;
28627;SDS011;15815;46.760;19.604;2023-04-15T07:46:02;3.42;;;2.10;;
28627;SDS011;15815;46.760;19.604;2023-04-15T07:48:28;4.18;;;1.90;;
28627;SDS011;15815;46.760;19.604;2023-04-15T07:50:53;3.28;;;2.05;;
28627;SDS011;15815;46.760;19.604;2023-04-15T07:53:19;6.32;;;2.58;;
28627;SDS011;15815;46.760;19.604;2023-04-15T07:55:44;11.40;;;2.95;;
28627;SDS011;15815;46.760;19.604;2023-04-15T07:58:11;8.85;;;3.13;;
28627;SDS011;15815;46.760;19.604;2023-04-15T08:00:36;2.03;;;1.23;;
28627;SDS011;15815;46.760;19.604;2023-04-15T08:03:02;3.17;;;2.30;;
28627;SDS011;15815;46.760;19.604;2023-04-15T08:05:32;2.05;;;1.40;;
28627;SDS011;15815;46.760;19.604;2023-04-15T08:07:58;4.80;;;1.50;;
28627;SDS011;15815;46.760;19.604;2023-04-15T08:10:23;5.18;;;2.70;;
28627;SDS011;15815;46.760;19.604;2023-04-15T08:12:49;3.88;;;1.83;;
28627;SDS011;15815;46.760;19.604;2023-04-15T08:15:14;5.03;;;2.25;;
28627;SDS011;15815;46.760;19.604;2023-04-15T08:17:40;5.65;;;2.90;;
28627;SDS011;15815;46.760;19.604;2023-04-15T08:20:06;4.35;;;2.35;;
28627;SDS011;15815;46.760;19.604;2023-04-15T08:22:31;4.68;;;3.38;;
28627;SDS011;15815;46.760;19.604;2023-04-15T08:24:57;6.15;;;2.42;;
28627;SDS011;15815;46.760;19.604;2023-04-15T08:27:23;2.72;;;1.80;;
28627;SDS011;15815;46.760;19.604;2023-04-15T08:29:49;2.33;;;0.98;;
28627;SDS011;15815;46.760;19.604;2023-04-15T08:32:14;2.58;;;1.10;;
28627;SDS011;15815;46.760;19.604;2023-04-15T08:34:40;0.93;;;0.85;;
28627;SDS011;15815;46.760;19.604;2023-04-15T08:37:06;1.77;;;0.98;;
28627;SDS011;15815;46.760;19.604;2023-04-15T08:39:32;3.78;;;1.38;;
28627;SDS011;15815;46.760;19.604;2023-04-15T08:44:24;1.20;;;1.10;;
28627;SDS011;15815;46.760;19.604;2023-04-15T08:46:53;9.10;;;1.60;;
28627;SDS011;15815;46.760;19.604;2023-04-15T08:49:28;2.13;;;1.52;;
28627;SDS011;15815;46.760;19.604;2023-04-15T08:52:01;1.42;;;0.98;;
28627;SDS011;15815;46.760;19.604;2023-04-15T08:54:27;1.50;;;0.70;;
28627;SDS011;15815;46.760;19.604;2023-04-15T08:56:53;0.70;;;0.63;;
28627;SDS011;15815;46.760;19.604;2023-04-15T08:59:19;1.58;;;0.77;;
28627;SDS011;15815;46.760;19.604;2023-04-15T09:01:48;6.00;;;1.13;;
28627;SDS011;15815;46.760;19.604;2023-04-15T09:04:14;1.27;;;1.10;;
28627;SDS011;15815;46.760;19.604;2023-04-15T09:06:41;4.93;;;1.05;;
28627;SDS011;15815;46.760;19.604;2023-04-15T09:09:06;1.15;;;0.68;;
28627;SDS011;15815;46.760;19.604;2023-04-15T09:11:33;13.02;;;1.00;;
28627;SDS011;15815;46.760;19.604;2023-04-15T09:13:58;1.83;;;1.10;;
28627;SDS011;15815;46.760;19.604;2023-04-15T09:16:24;0.50;;;0.50;;
28627;SDS011;15815;46.760;19.604;2023-04-15T09:18:50;1.73;;;1.25;;
28627;SDS011;15815;46.760;19.604;2023-04-15T09:21:16;2.70;;;1.45;;
28627;SDS011;15815;46.760;19.604;2023-04-15T09:23:55;2.78;;;1.52;;
28627;SDS011;15815;46.760;19.604;2023-04-15T09:26:32;4.05;;;0.90;;
28627;SDS011;15815;46.760;19.604;2023-04-15T09:29:05;2.10;;;1.02;;
28627;SDS011;15815;46.760;19.604;2023-04-15T09:31:32;1.70;;;1.00;;
28627;SDS011;15815;46.760;19.604;2023-04-15T09:33:59;1.65;;;0.82;;
28627;SDS011;15815;46.760;19.604;2023-04-15T09:36:25;10.30;;;1.35;;
28627;SDS011;15815;46.760;19.604;2023-04-15T09:38:58;0.80;;;0.80;;
28627;SDS011;15815;46.760;19.604;2023-04-15T09:41:24;1.00;;;0.90;;
28627;SDS011;15815;46.760;19.604;2023-04-15T09:43:50;1.95;;;0.80;;
28627;SDS011;15815;46.760;19.604;2023-04-15T09:46:16;2.35;;;1.23;;
28627;SDS011;15815;46.760;19.604;2023-04-15T09:48:42;1.70;;;0.95;;
28627;SDS011;15815;46.760;19.604;2023-04-15T09:51:07;1.40;;;1.00;;
28627;SDS011;15815;46.760;19.604;2023-04-15T09:53:34;1.58;;;1.10;;
28627;SDS011;15815;46.760;19.604;2023-04-15T09:56:00;1.77;;;0.90;;
28627;SDS011;15815;46.760;19.604;2023-04-15T09:58:28;1.05;;;0.82;;
28627;SDS011;15815;46.760;19.604;2023-04-15T10:00:56;3.80;;;0.90;;
28627;SDS011;15815;46.760;19.604;2023-04-15T10:03:23;3.08;;;1.67;;
28627;SDS011;15815;46.760;19.604;2023-04-15T10:05:50;1.52;;;1.20;;
28627;SDS011;15815;46.760;19.604;2023-04-15T10:08:21;2.20;;;1.10;;
28627;SDS011;15815;46.760;19.604;2023-04-15T10:10:48;1.58;;;1.30;;
28627;SDS011;15815;46.760;19.604;2023-04-15T10:13:16;1.35;;;0.57;;
28627;SDS011;15815;46.760;19.604;2023-04-15T10:15:44;7.72;;;0.85;;
28627;SDS011;15815;46.760;19.604;2023-04-15T10:18:19;1.35;;;0.80;;
28627;SDS011;15815;46.760;19.604;2023-04-15T10:20:47;3.35;;;1.90;;
28627;SDS011;15815;46.760;19.604;2023-04-15T10:23:12;3.70;;;1.95;;
28627;SDS011;15815;46.760;19.604;2023-04-15T10:25:40;2.45;;;1.90;;
28627;SDS011;15815;46.760;19.604;2023-04-15T10:28:06;2.60;;;1.73;;
28627;SDS011;15815;46.760;19.604;2023-04-15T10:30:32;3.33;;;2.10;;
28627;SDS011;15815;46.760;19.604;2023-04-15T10:32:58;3.13;;;1.10;;
28627;SDS011;15815;46.760;19.604;2023-04-15T10:35:26;2.28;;;1.20;;
28627;SDS011;15815;46.760;19.604;2023-04-15T10:37:53;1.20;;;1.10;;
28627;SDS011;15815;46.760;19.604;2023-04-15T10:40:29;3.80;;;3.28;;
28627;SDS011;15815;46.760;19.604;2023-04-15T10:42:55;4.50;;;1.70;;
28627;SDS011;15815;46.760;19.604;2023-04-15T10:45:23;4.82;;;2.50;;
28627;SDS011;15815;46.760;19.604;2023-04-15T10:47:51;4.10;;;1.30;;
28627;SDS011;15815;46.760;19.604;2023-04-15T10:50:19;2.55;;;1.02;;
28627;SDS011;15815;46.760;19.604;2023-04-15T10:52:44;1.30;;;1.20;;
28627;SDS011;15815;46.760;19.604;2023-04-15T10:55:14;5.53;;;2.45;;
28627;SDS011;15815;46.760;19.604;2023-04-15T10:57:50;1.50;;;1.35;;
28627;SDS011;15815;46.760;19.604;2023-04-15T11:00:18;5.55;;;2.33;;
28627;SDS011;15815;46.760;19.604;2023-04-15T11:05:22;4.53;;;2.10;;
28627;SDS011;15815;46.760;19.604;2023-04-15T11:08:05;5.45;;;2.92;;
28627;SDS011;15815;46.760;19.604;2023-04-15T11:12:57;3.35;;;1.50;;
28627;SDS011;15815;46.760;19.604;2023-04-15T11:15:41;3.10;;;1.60;;
28627;SDS011;15815;46.760;19.604;2023-04-15T11:18:12;2.13;;;1.40;;
28627;SDS011;15815;46.760;19.604;2023-04-15T11:20:46;3.80;;;1.70;;
28627;SDS011;15815;46.760;19.604;2023-04-15T11:23:12;2.30;;;1.30;;
28627;SDS011;15815;46.760;19.604;2023-04-15T11:25:39;3.00;;;1.40;;
28627;SDS011;15815;46.760;19.604;2023-04-15T11:28:05;3.28;;;1.75;;
28627;SDS011;15815;46.760;19.604;2023-04-15T11:30:32;3.13;;;1.45;;
28627;SDS011;15815;46.760;19.604;2023-04-15T11:33:01;3.00;;;2.10;;
28627;SDS011;15815;46.760;19.604;2023-04-15T11:35:29;1.45;;;1.35;;
28627;SDS011;15815;46.760;19.604;2023-04-15T11:37:55;4.15;;;2.08;;
28627;SDS011;15815;46.760;19.604;2023-04-15T11:40:25;4.70;;;2.85;;
28627;SDS011;15815;46.760;19.604;2023-04-15T11:43:11;4.55;;;3.13;;
28627;SDS011;15815;46.760;19.604;2023-04-15T11:45:47;3.45;;;2.20;;
28627;SDS011;15815;46.760;19.604;2023-04-15T11:48:15;3.35;;;2.28;;
28627;SDS011;15815;46.760;19.604;2023-04-15T11:50:41;4.53;;;2.28;;
28627;SDS011;15815;46.760;19.604;2023-04-15T11:53:11;2.80;;;2.20;;
28627;SDS011;15815;46.760;19.604;2023-04-15T11:55:45;4.72;;;2.65;;
28627;SDS011;15815;46.760;19.604;2023-04-15T12:00:54;8.02;;;4.63;;
28627;SDS011;15815;46.760;19.604;2023-04-15T12:03:28;6.43;;;3.38;;
28627;SDS011;15815;46.760;19.604;2023-04-15T12:11:18;12.02;;;5.07;;
28627;SDS011;15815;46.760;19.604;2023-04-15T12:13:48;9.73;;;5.00;;
28627;SDS011;15815;46.760;19.604;2023-04-15T12:16:17;17.85;;;8.70;;
28627;SDS011;15815;46.760;19.604;2023-04-15T12:18:49;2.13;;;1.40;;
28627;SDS011;15815;46.760;19.604;2023-04-15T12:21:18;7.10;;;4.15;;
28627;SDS011;15815;46.760;19.604;2023-04-15T12:23:51;23.98;;;13.35;;
28627;SDS011;15815;46.760;19.604;2023-04-15T12:26:25;11.77;;;6.75;;
28627;SDS011;15815;46.760;19.604;2023-04-15T12:29:02;3.08;;;1.83;;
28627;SDS011;15815;46.760;19.604;2023-04-15T12:31:29;18.95;;;10.52;;
28627;SDS011;15815;46.760;19.604;2023-04-15T12:33:56;24.25;;;13.88;;
28627;SDS011;15815;46.760;19.604;2023-04-15T12:36:25;6.80;;;4.47;;
28627;SDS011;15815;46.760;19.604;2023-04-15T12:38:50;8.50;;;5.22;;
28627;SDS011;15815;46.760;19.604;2023-04-15T12:41:16;9.75;;;5.30;;
28627;SDS011;15815;46.760;19.604;2023-04-15T12:43:45;4.72;;;2.70;;
28627;SDS011;15815;46.760;19.604;2023-04-15T12:46:11;11.70;;;4.00;;
28627;SDS011;15815;46.760;19.604;2023-04-15T12:48:37;6.13;;;3.90;;
28627;SDS011;15815;46.760;19.604;2023-04-15T12:51:04;4.32;;;3.03;;
28627;SDS011;15815;46.760;19.604;2023-04-15T12:53:30;2.95;;;1.60;;
28627;SDS011;15815;46.760;19.604;2023-04-15T12:55:57;6.20;;;3.80;;
28627;SDS011;15815;46.760;19.604;2023-04-15T12:58:22;3.15;;;1.38;;
28627;SDS011;15815;46.760;19.604;2023-04-15T13:00:48;4.28;;;2.67;;
28627;SDS011;15815;46.760;19.604;2023-04-15T13:03:16;5.57;;;2.70;;
28627;SDS011;15815;46.760;19.604;2023-04-15T13:05:43;3.05;;;1.88;;
28627;SDS011;15815;46.760;19.604;2023-04-15T13:08:08;6.55;;;3.15;;
28627;SDS011;15815;46.760;19.604;2023-04-15T13:10:34;1.58;;;1.10;;
28627;SDS011;15815;46.760;19.604;2023-04-15T13:13:00;3.67;;;2.25;;
28627;SDS011;15815;46.760;19.604;2023-04-15T13:15:26;3.10;;;2.10;;
28627;SDS011;15815;46.760;19.604;2023-04-15T13:17:54;4.07;;;2.53;;
28627;SDS011;15815;46.760;19.604;2023-04-15T13:20:20;3.55;;;2.28;;
28627;SDS011;15815;46.760;19.604;2023-04-15T13:22:46;5.03;;;2.50;;
28627;SDS011;15815;46.760;19.604;2023-04-15T13:25:11;3.65;;;2.50;;
28627;SDS011;15815;46.760;19.604;2023-04-15T13:27:37;3.28;;;1.63;;
28627;SDS011;15815;46.760;19.604;2023-04-15T13:30:04;9.55;;;5.88;;
28627;SDS011;15815;46.760;19.604;2023-04-15T13:32:30;2.08;;;1.13;;
28627;SDS011;15815;46.760;19.604;2023-04-15T13:34:56;1.88;;;1.00;;
28627;SDS011;15815;46.760;19.604;2023-04-15T13:37:27;1.17;;;1.00;;
28627;SDS011;15815;46.760;19.604;2023-04-15T13:39:54;1.20;;;0.98;;
28627;SDS011;15815;46.760;19.604;2023-04-15T13:42:20;2.15;;;1.48;;
28627;SDS011;15815;46.760;19.604;2023-04-15T13:44:46;2.03;;;1.13;;
28627;SDS011;15815;46.760;19.604;2023-04-15T13:47:12;3.28;;;1.75;;
28627;SDS011;15815;46.760;19.604;2023-04-15T13:49:38;1.48;;;1.35;;
28627;SDS011;15815;46.760;19.604;2023-04-15T13:52:04;1.30;;;1.02;;
28627;SDS011;15815;46.760;19.604;2023-04-15T13:54:30;3.80;;;2.50;;
28627;SDS011;15815;46.760;19.604;2023-04-15T13:59:24;0.88;;;0.80;;
28627;SDS011;15815;46.760;19.604;2023-04-15T14:01:49;1.48;;;1.30;;
28627;SDS011;15815;46.760;19.604;2023-04-15T14:04:15;0.80;;;0.77;;
28627;SDS011;15815;46.760;19.604;2023-04-15T14:06:41;1.58;;;0.85;;
28627;SDS011;15815;46.760;19.604;2023-04-15T14:09:06;2.28;;;1.17;;
28627;SDS011;15815;46.760;19.604;2023-04-15T14:11:32;2.60;;;0.85;;
28627;SDS011;15815;46.760;19.604;2023-04-15T14:14:07;0.82;;;0.82;;
28627;SDS011;15815;46.760;19.604;2023-04-15T14:16:44;1.52;;;1.30;;
28627;SDS011;15815;46.760;19.604;2023-04-15T14:19:36;2.28;;;1.33;;
28627;SDS011;15815;46.760;19.604;2023-04-15T14:22:02;3.20;;;1.40;;
28627;SDS011;15815;46.760;19.604;2023-04-15T14:24:27;5.75;;;2.92;;
28627;SDS011;15815;46.760;19.604;2023-04-15T14:26:53;4.15;;;1.88;;
28627;SDS011;15815;46.760;19.604;2023-04-15T14:29:19;3.47;;;1.90;;
28627;SDS011;15815;46.760;19.604;2023-04-15T14:31:44;3.08;;;1.75;;
28627;SDS011;15815;46.760;19.604;2023-04-15T14:34:10;3.65;;;1.73;;
28627;SDS011;15815;46.760;19.604;2023-04-15T14:36:36;2.20;;;1.58;;
28627;SDS011;15815;46.760;19.604;2023-04-15T14:39:02;3.00;;;1.38;;
28627;SDS011;15815;46.760;19.604;2023-04-15T14:41:37;3.03;;;1.48;;